Los Gatos, California
Current Conditions -  °F | °C
As of 9:53 PM on Wednesday 22 Oct 2014 (Local Time) from KSJC Reporting Station
Broken Clouds Broken Clouds  
Wind Chill: 62°   Ceiling: 20000
Heat Index: 62°   Visibility: 10mi
Dew Point: 57°   Wind: 6mph
Humidity: 84%   Direction: 300°WNW
Pressure: 30.06"   Gusts: NA
Location:  37.22°N, 121.97°W
Report Text: KSJC 230453Z 30005KT 10SM FEW150 BKN200 17/14 A3006 RMK AO2 SLP178 T01670139
Loading
Personal Weather Stations






























Interactive Weather Map New forecast layout! Learn more

10-Day Weather Forecast

Advertisements
Track Severe Weather on mobile